Lake Leelanau, Michigan
Current Conditions -  °F | °C
As of 3:53 AM on Saturday 25 Oct 2014 (Local Time) from KTVC Reporting Station
Overcast Overcast  
Wind Chill: 54°   Ceiling: 2200
Heat Index: 54°   Visibility: 10mi
Dew Point: 47°   Wind: 5mph
Humidity: 77%   Direction: NA
Pressure: 29.77"   Gusts: NA
Location:  44.98°N, 85.71°W
Report Text: KTVC 250753Z AUTO VRB04KT 10SM OVC022 12/08 A2977 RMK AO2 SLP083 T01220083
Loading
Personal Weather Stations






























Interactive Weather Map New forecast layout! Learn more

10-Day Weather Forecast

Advertisements
Track Severe Weather on mobile